sensor_id;sensor_type;location;lat;lon;timestamp;pressure;altitude;pressure_sealevel;temperature;humidity
85386;BME280;75792;42.686;23.298;2024-02-26T00:01:50;94258.63;;;8.54;78.10
85386;BME280;75792;42.686;23.298;2024-02-26T00:04:16;94261.19;;;8.46;78.84
85386;BME280;75792;42.686;23.298;2024-02-26T00:06:41;94267.78;;;8.43;78.21
85386;BME280;75792;42.686;23.298;2024-02-26T00:09:07;94255.78;;;8.42;77.50
85386;BME280;75792;42.686;23.298;2024-02-26T00:11:33;94253.22;;;8.51;77.42
85386;BME280;75792;42.686;23.298;2024-02-26T00:13:58;94253.22;;;8.51;77.32
85386;BME280;75792;42.686;23.298;2024-02-26T00:16:24;94253.88;;;8.56;77.62
85386;BME280;75792;42.686;23.298;2024-02-26T00:18:49;94248.56;;;8.34;77.16
85386;BME280;75792;42.686;23.298;2024-02-26T00:21:15;94260.31;;;8.36;78.26
85386;BME280;75792;42.686;23.298;2024-02-26T00:23:40;94258.06;;;8.44;78.47
85386;BME280;75792;42.686;23.298;2024-02-26T00:26:05;94251.28;;;8.43;78.42
85386;BME280;75792;42.686;23.298;2024-02-26T00:28:31;94246.06;;;8.43;78.32
85386;BME280;75792;42.686;23.298;2024-02-26T00:30:56;94241.19;;;8.50;79.06
85386;BME280;75792;42.686;23.298;2024-02-26T00:33:22;94239.28;;;8.42;78.80
85386;BME280;75792;42.686;23.298;2024-02-26T00:35:48;94248.75;;;8.37;78.75
85386;BME280;75792;42.686;23.298;2024-02-26T00:38:14;94243.72;;;8.41;79.20
85386;BME280;75792;42.686;23.298;2024-02-26T00:40:39;94232.63;;;8.58;78.45
85386;BME280;75792;42.686;23.298;2024-02-26T00:43:06;94233.22;;;8.55;79.31
85386;BME280;75792;42.686;23.298;2024-02-26T00:45:31;94232.00;;;8.61;79.04
85386;BME280;75792;42.686;23.298;2024-02-26T00:47:58;94222.34;;;8.70;78.96
85386;BME280;75792;42.686;23.298;2024-02-26T00:50:23;94223.81;;;8.76;78.27
85386;BME280;75792;42.686;23.298;2024-02-26T00:52:48;94213.91;;;8.73;78.44
85386;BME280;75792;42.686;23.298;2024-02-26T00:55:14;94224.38;;;8.96;77.56
85386;BME280;75792;42.686;23.298;2024-02-26T00:57:39;94222.34;;;8.93;77.77
85386;BME280;75792;42.686;23.298;2024-02-26T01:00:06;94212.47;;;8.90;77.92
85386;BME280;75792;42.686;23.298;2024-02-26T01:02:34;94215.56;;;8.92;77.61
85386;BME280;75792;42.686;23.298;2024-02-26T01:04:59;94209.72;;;8.95;77.76
85386;BME280;75792;42.686;23.298;2024-02-26T01:07:25;94217.47;;;9.00;77.26
85386;BME280;75792;42.686;23.298;2024-02-26T01:09:50;94212.94;;;8.69;77.10
85386;BME280;75792;42.686;23.298;2024-02-26T01:12:15;94214.44;;;8.62;77.68
85386;BME280;75792;42.686;23.298;2024-02-26T01:14:41;94202.63;;;8.50;77.80
85386;BME280;75792;42.686;23.298;2024-02-26T01:17:06;94205.19;;;8.64;77.61
85386;BME280;75792;42.686;23.298;2024-02-26T01:19:31;94207.94;;;8.82;77.59
85386;BME280;75792;42.686;23.298;2024-02-26T01:21:57;94209.38;;;8.88;77.96
85386;BME280;75792;42.686;23.298;2024-02-26T01:24:22;94214.97;;;8.95;77.06
85386;BME280;75792;42.686;23.298;2024-02-26T01:26:48;94216.34;;;8.92;76.48
85386;BME280;75792;42.686;23.298;2024-02-26T01:29:13;94210.31;;;8.92;77.17
85386;BME280;75792;42.686;23.298;2024-02-26T01:31:38;94205.31;;;8.82;76.92
85386;BME280;75792;42.686;23.298;2024-02-26T01:34:04;94208.59;;;8.87;76.94
85386;BME280;75792;42.686;23.298;2024-02-26T01:36:29;94198.44;;;8.94;76.21
85386;BME280;75792;42.686;23.298;2024-02-26T01:38:54;94201.84;;;8.95;76.22
85386;BME280;75792;42.686;23.298;2024-02-26T01:41:20;94201.25;;;8.98;75.85
85386;BME280;75792;42.686;23.298;2024-02-26T01:43:45;94195.75;;;8.86;76.40
85386;BME280;75792;42.686;23.298;2024-02-26T01:46:14;94208.34;;;8.97;76.80
85386;BME280;75792;42.686;23.298;2024-02-26T01:48:41;94200.16;;;8.99;75.63
85386;BME280;75792;42.686;23.298;2024-02-26T01:51:07;94194.78;;;9.04;75.90
85386;BME280;75792;42.686;23.298;2024-02-26T01:53:33;94191.69;;;9.02;76.05
85386;BME280;75792;42.686;23.298;2024-02-26T01:55:59;94193.03;;;8.91;76.86
85386;BME280;75792;42.686;23.298;2024-02-26T01:58:24;94197.06;;;8.97;76.71
85386;BME280;75792;42.686;23.298;2024-02-26T02:00:50;94188.78;;;8.81;76.95
85386;BME280;75792;42.686;23.298;2024-02-26T02:03:15;94197.44;;;8.59;77.44
85386;BME280;75792;42.686;23.298;2024-02-26T02:05:41;94199.00;;;8.60;77.89
85386;BME280;75792;42.686;23.298;2024-02-26T02:08:11;94188.25;;;8.70;77.54
85386;BME280;75792;42.686;23.298;2024-02-26T02:10:38;94190.63;;;8.80;77.39
85386;BME280;75792;42.686;23.298;2024-02-26T02:13:03;94192.09;;;8.87;77.53
85386;BME280;75792;42.686;23.298;2024-02-26T02:15:29;94189.34;;;8.47;79.48
85386;BME280;75792;42.686;23.298;2024-02-26T02:17:54;94180.72;;;8.32;81.00
85386;BME280;75792;42.686;23.298;2024-02-26T02:20:24;94178.09;;;8.32;80.28
85386;BME280;75792;42.686;23.298;2024-02-26T02:22:50;94191.19;;;8.10;82.05
85386;BME280;75792;42.686;23.298;2024-02-26T02:25:15;94186.94;;;8.00;82.41
85386;BME280;75792;42.686;23.298;2024-02-26T02:27:42;94193.91;;;7.91;82.63
85386;BME280;75792;42.686;23.298;2024-02-26T02:30:08;94192.94;;;8.01;81.35
85386;BME280;75792;42.686;23.298;2024-02-26T02:32:34;94184.25;;;8.14;81.48
85386;BME280;75792;42.686;23.298;2024-02-26T02:35:00;94179.28;;;8.26;81.31
85386;BME280;75792;42.686;23.298;2024-02-26T02:37:26;94178.38;;;8.45;80.15
85386;BME280;75792;42.686;23.298;2024-02-26T02:39:51;94182.91;;;8.53;79.90
85386;BME280;75792;42.686;23.298;2024-02-26T02:42:18;94190.72;;;8.67;79.94
85386;BME280;75792;42.686;23.298;2024-02-26T02:44:44;94190.31;;;8.73;79.03
85386;BME280;75792;42.686;23.298;2024-02-26T02:47:09;94182.97;;;8.84;79.11
85386;BME280;75792;42.686;23.298;2024-02-26T02:49:35;94189.59;;;8.82;78.95
85386;BME280;75792;42.686;23.298;2024-02-26T02:52:00;94193.88;;;8.77;79.28
85386;BME280;75792;42.686;23.298;2024-02-26T02:54:26;94197.53;;;8.31;81.36
85386;BME280;75792;42.686;23.298;2024-02-26T02:56:51;94197.25;;;8.19;81.14
85386;BME280;75792;42.686;23.298;2024-02-26T02:59:17;94197.97;;;8.11;82.71
85386;BME280;75792;42.686;23.298;2024-02-26T03:01:42;94203.03;;;7.93;82.87
85386;BME280;75792;42.686;23.298;2024-02-26T03:04:07;94197.00;;;8.07;82.25
85386;BME280;75792;42.686;23.298;2024-02-26T03:06:33;94198.69;;;8.25;81.30
85386;BME280;75792;42.686;23.298;2024-02-26T03:08:58;94195.16;;;8.44;81.15
85386;BME280;75792;42.686;23.298;2024-02-26T03:11:23;94199.00;;;8.60;80.54
85386;BME280;75792;42.686;23.298;2024-02-26T03:13:51;94199.53;;;8.71;79.50
85386;BME280;75792;42.686;23.298;2024-02-26T03:16:17;94203.16;;;8.84;79.41
85386;BME280;75792;42.686;23.298;2024-02-26T03:18:42;94206.63;;;8.93;78.65
85386;BME280;75792;42.686;23.298;2024-02-26T03:21:08;94200.75;;;8.96;78.83
85386;BME280;75792;42.686;23.298;2024-02-26T03:23:33;94201.13;;;9.03;78.50
85386;BME280;75792;42.686;23.298;2024-02-26T03:26:05;94194.06;;;9.12;78.54
85386;BME280;75792;42.686;23.298;2024-02-26T03:28:31;94183.75;;;9.16;78.36
85386;BME280;75792;42.686;23.298;2024-02-26T03:30:59;94181.41;;;9.14;77.58
85386;BME280;75792;42.686;23.298;2024-02-26T03:33:24;94178.66;;;9.19;77.56
85386;BME280;75792;42.686;23.298;2024-02-26T03:35:50;94173.53;;;9.14;77.71
85386;BME280;75792;42.686;23.298;2024-02-26T03:38:15;94174.03;;;9.16;78.44
85386;BME280;75792;42.686;23.298;2024-02-26T03:40:41;94176.78;;;9.11;78.82
85386;BME280;75792;42.686;23.298;2024-02-26T03:43:06;94185.13;;;9.13;78.43
85386;BME280;75792;42.686;23.298;2024-02-26T03:45:33;94185.28;;;9.17;78.57
85386;BME280;75792;42.686;23.298;2024-02-26T03:47:58;94184.16;;;9.09;78.13
85386;BME280;75792;42.686;23.298;2024-02-26T03:50:23;94183.22;;;9.05;77.87
85386;BME280;75792;42.686;23.298;2024-02-26T03:52:49;94170.25;;;9.00;79.05
85386;BME280;75792;42.686;23.298;2024-02-26T03:55:14;94166.38;;;8.97;78.77
85386;BME280;75792;42.686;23.298;2024-02-26T03:57:40;94155.34;;;8.87;79.20
85386;BME280;75792;42.686;23.298;2024-02-26T04:00:06;94170.97;;;8.92;78.57
85386;BME280;75792;42.686;23.298;2024-02-26T04:02:31;94166.78;;;8.91;79.69
85386;BME280;75792;42.686;23.298;2024-02-26T04:04:57;94168.69;;;8.99;79.12
85386;BME280;75792;42.686;23.298;2024-02-26T04:07:22;94167.13;;;8.98;79.50
85386;BME280;75792;42.686;23.298;2024-02-26T04:09:48;94161.44;;;9.05;78.23
85386;BME280;75792;42.686;23.298;2024-02-26T04:12:13;94163.44;;;8.99;78.95
85386;BME280;75792;42.686;23.298;2024-02-26T04:14:39;94165.94;;;9.04;78.84
85386;BME280;75792;42.686;23.298;2024-02-26T04:17:05;94165.19;;;9.12;78.14
85386;BME280;75792;42.686;23.298;2024-02-26T04:19:30;94157.94;;;9.09;79.20
85386;BME280;75792;42.686;23.298;2024-02-26T04:21:55;94153.88;;;9.03;78.08
85386;BME280;75792;42.686;23.298;2024-02-26T04:24:21;94153.88;;;9.03;79.45
85386;BME280;75792;42.686;23.298;2024-02-26T04:26:46;94159.53;;;8.88;79.40
85386;BME280;75792;42.686;23.298;2024-02-26T04:29:11;94150.97;;;8.73;80.36
85386;BME280;75792;42.686;23.298;2024-02-26T04:31:37;94151.53;;;8.70;79.71
85386;BME280;75792;42.686;23.298;2024-02-26T04:34:03;94150.38;;;8.76;79.59
85386;BME280;75792;42.686;23.298;2024-02-26T04:36:28;94144.19;;;8.81;79.58
85386;BME280;75792;42.686;23.298;2024-02-26T04:38:54;94160.59;;;8.87;79.38
85386;BME280;75792;42.686;23.298;2024-02-26T04:41:22;94160.59;;;8.87;79.32
85386;BME280;75792;42.686;23.298;2024-02-26T04:43:47;94160.16;;;8.93;79.37
85386;BME280;75792;42.686;23.298;2024-02-26T04:46:13;94158.19;;;8.99;79.21
85386;BME280;75792;42.686;23.298;2024-02-26T04:48:38;94158.31;;;8.94;78.77
85386;BME280;75792;42.686;23.298;2024-02-26T04:51:04;94167.75;;;8.95;78.82
85386;BME280;75792;42.686;23.298;2024-02-26T04:53:30;94165.28;;;8.98;79.43
85386;BME280;75792;42.686;23.298;2024-02-26T04:55:55;94168.19;;;8.97;79.16
85386;BME280;75792;42.686;23.298;2024-02-26T04:58:21;94172.56;;;9.01;78.53
85386;BME280;75792;42.686;23.298;2024-02-26T05:00:46;94169.03;;;9.06;78.71
85386;BME280;75792;42.686;23.298;2024-02-26T05:03:12;94168.69;;;8.99;79.49
85386;BME280;75792;42.686;23.298;2024-02-26T05:05:38;94174.53;;;8.96;79.67
85386;BME280;75792;42.686;23.298;2024-02-26T05:08:04;94175.75;;;8.90;79.88
85386;BME280;75792;42.686;23.298;2024-02-26T05:10:29;94195.97;;;8.89;79.17
85386;BME280;75792;42.686;23.298;2024-02-26T05:12:55;94186.84;;;8.87;79.07
85386;BME280;75792;42.686;23.298;2024-02-26T05:15:20;94196.13;;;8.93;79.52
85386;BME280;75792;42.686;23.298;2024-02-26T05:17:45;94187.59;;;8.87;79.73
85386;BME280;75792;42.686;23.298;2024-02-26T05:20:11;94204.34;;;8.77;79.66
85386;BME280;75792;42.686;23.298;2024-02-26T05:22:37;94207.09;;;8.72;80.00
85386;BME280;75792;42.686;23.298;2024-02-26T05:25:03;94210.56;;;8.82;79.56
85386;BME280;75792;42.686;23.298;2024-02-26T05:27:28;94201.44;;;8.79;79.32
85386;BME280;75792;42.686;23.298;2024-02-26T05:29:53;94208.28;;;8.89;79.53
85386;BME280;75792;42.686;23.298;2024-02-26T05:32:19;94211.25;;;8.96;79.25
85386;BME280;75792;42.686;23.298;2024-02-26T05:34:44;94210.91;;;8.89;78.66
85386;BME280;75792;42.686;23.298;2024-02-26T05:37:10;94224.72;;;8.80;78.82
85386;BME280;75792;42.686;23.298;2024-02-26T05:39:36;94225.78;;;8.71;79.44
85386;BME280;75792;42.686;23.298;2024-02-26T05:42:02;94219.03;;;8.56;79.73
85386;BME280;75792;42.686;23.298;2024-02-26T05:44:27;94225.88;;;8.29;80.82
85386;BME280;75792;42.686;23.298;2024-02-26T05:46:53;94226.28;;;8.09;81.85
85386;BME280;75792;42.686;23.298;2024-02-26T05:49:18;94232.63;;;8.08;82.53
85386;BME280;75792;42.686;23.298;2024-02-26T05:51:43;94222.97;;;8.17;82.18
85386;BME280;75792;42.686;23.298;2024-02-26T05:54:09;94231.50;;;8.36;81.48
85386;BME280;75792;42.686;23.298;2024-02-26T05:56:35;94222.34;;;8.48;81.10
85386;BME280;75792;42.686;23.298;2024-02-26T05:59:00;94221.53;;;8.61;80.42
85386;BME280;75792;42.686;23.298;2024-02-26T06:01:26;94231.78;;;8.71;80.66
85386;BME280;75792;42.686;23.298;2024-02-26T06:03:51;94221.78;;;8.73;80.06
85386;BME280;75792;42.686;23.298;2024-02-26T06:06:17;94229.03;;;8.76;79.53
85386;BME280;75792;42.686;23.298;2024-02-26T06:08:43;94241.59;;;8.43;80.33
85386;BME280;75792;42.686;23.298;2024-02-26T06:11:08;94244.88;;;8.49;80.73
85386;BME280;75792;42.686;23.298;2024-02-26T06:13:34;94242.72;;;8.51;80.80
85386;BME280;75792;42.686;23.298;2024-02-26T06:16:00;94237.63;;;8.68;80.20
85386;BME280;75792;42.686;23.298;2024-02-26T06:18:25;94244.94;;;8.80;79.93
85386;BME280;75792;42.686;23.298;2024-02-26T06:20:51;94251.56;;;8.77;79.60
85386;BME280;75792;42.686;23.298;2024-02-26T06:23:16;94243.94;;;8.90;79.75
85386;BME280;75792;42.686;23.298;2024-02-26T06:25:41;94245.25;;;9.01;79.20
85386;BME280;75792;42.686;23.298;2024-02-26T06:28:08;94241.78;;;9.14;77.73
85386;BME280;75792;42.686;23.298;2024-02-26T06:30:33;94248.56;;;9.15;77.90
85386;BME280;75792;42.686;23.298;2024-02-26T06:32:59;94244.75;;;9.21;77.80
85386;BME280;75792;42.686;23.298;2024-02-26T06:35:25;94249.88;;;9.27;77.91
85386;BME280;75792;42.686;23.298;2024-02-26T06:37:50;94240.03;;;9.32;78.17
85386;BME280;75792;42.686;23.298;2024-02-26T06:40:18;94250.44;;;9.46;77.60
85386;BME280;75792;42.686;23.298;2024-02-26T06:42:43;94248.28;;;9.48;77.15
85386;BME280;75792;42.686;23.298;2024-02-26T06:45:09;94244.69;;;9.44;77.47
85386;BME280;75792;42.686;23.298;2024-02-26T06:47:35;94246.41;;;9.40;77.17
85386;BME280;75792;42.686;23.298;2024-02-26T06:50:00;94244.56;;;9.49;77.08
85386;BME280;75792;42.686;23.298;2024-02-26T06:52:26;94244.22;;;9.42;76.78
85386;BME280;75792;42.686;23.298;2024-02-26T06:54:52;94241.81;;;9.54;76.46
85386;BME280;75792;42.686;23.298;2024-02-26T06:57:19;94248.78;;;9.59;75.29
85386;BME280;75792;42.686;23.298;2024-02-26T06:59:45;94245.25;;;9.63;75.19
85386;BME280;75792;42.686;23.298;2024-02-26T07:02:12;94241.72;;;9.68;75.28
85386;BME280;75792;42.686;23.298;2024-02-26T07:04:38;94249.44;;;9.73;74.60
85386;BME280;75792;42.686;23.298;2024-02-26T07:07:04;94243.78;;;9.80;74.02
85386;BME280;75792;42.686;23.298;2024-02-26T07:09:29;94255.53;;;9.91;73.34
85386;BME280;75792;42.686;23.298;2024-02-26T07:11:54;94249.03;;;9.80;73.36
85386;BME280;75792;42.686;23.298;2024-02-26T07:14:20;94259.91;;;9.96;73.81
85386;BME280;75792;42.686;23.298;2024-02-26T07:16:45;94257.28;;;9.96;73.20
85386;BME280;75792;42.686;23.298;2024-02-26T07:19:11;94258.03;;;9.96;72.86
85386;BME280;75792;42.686;23.298;2024-02-26T07:21:36;94257.41;;;9.99;73.33
85386;BME280;75792;42.686;23.298;2024-02-26T07:24:02;94258.69;;;10.10;72.50
85386;BME280;75792;42.686;23.298;2024-02-26T07:26:27;94269.19;;;10.10;72.33
85386;BME280;75792;42.686;23.298;2024-02-26T07:28:55;94252.50;;;10.15;72.75
85386;BME280;75792;42.686;23.298;2024-02-26T07:31:20;94260.88;;;10.26;72.37
85386;BME280;75792;42.686;23.298;2024-02-26T07:33:46;94255.50;;;10.31;72.04
85386;BME280;75792;42.686;23.298;2024-02-26T07:36:11;94258.00;;;10.45;71.78
85386;BME280;75792;42.686;23.298;2024-02-26T07:38:37;94259.25;;;10.56;71.89
85386;BME280;75792;42.686;23.298;2024-02-26T07:41:02;94267.44;;;10.54;71.88
85386;BME280;75792;42.686;23.298;2024-02-26T07:43:28;94268.22;;;10.55;72.23
85386;BME280;75792;42.686;23.298;2024-02-26T07:45:53;94271.47;;;10.61;72.07
85386;BME280;75792;42.686;23.298;2024-02-26T07:48:19;94262.66;;;10.65;72.24
85386;BME280;75792;42.686;23.298;2024-02-26T07:50:44;94256.31;;;10.75;71.80
85386;BME280;75792;42.686;23.298;2024-02-26T07:53:09;94258.78;;;10.80;71.64
85386;BME280;75792;42.686;23.298;2024-02-26T07:55:35;94260.03;;;10.91;71.01
85386;BME280;75792;42.686;23.298;2024-02-26T07:58:00;94259.09;;;10.87;70.75
85386;BME280;75792;42.686;23.298;2024-02-26T08:00:26;94273.34;;;11.04;71.10
85386;BME280;75792;42.686;23.298;2024-02-26T08:02:51;94256.00;;;10.94;71.43
85386;BME280;75792;42.686;23.298;2024-02-26T08:05:17;94257.09;;;10.93;70.92
85386;BME280;75792;42.686;23.298;2024-02-26T08:07:42;94255.22;;;10.93;70.49
85386;BME280;75792;42.686;23.298;2024-02-26T08:10:08;94258.59;;;11.03;70.11
85386;BME280;75792;42.686;23.298;2024-02-26T08:12:33;94249.47;;;11.09;69.68
85386;BME280;75792;42.686;23.298;2024-02-26T08:14:59;94248.09;;;10.94;69.85
85386;BME280;75792;42.686;23.298;2024-02-26T08:17:25;94244.53;;;10.81;70.78
85386;BME280;75792;42.686;23.298;2024-02-26T08:19:50;94246.41;;;10.72;71.05
85386;BME280;75792;42.686;23.298;2024-02-26T08:22:16;94251.97;;;10.96;70.97
85386;BME280;75792;42.686;23.298;2024-02-26T08:24:43;94246.53;;;11.10;69.67
85386;BME280;75792;42.686;23.298;2024-02-26T08:27:08;94239.28;;;10.81;70.13
85386;BME280;75792;42.686;23.298;2024-02-26T08:29:33;94250.75;;;10.85;70.79
85386;BME280;75792;42.686;23.298;2024-02-26T08:31:59;94254.16;;;10.60;71.08
85386;BME280;75792;42.686;23.298;2024-02-26T08:34:25;94246.84;;;10.74;71.18
85386;BME280;75792;42.686;23.298;2024-02-26T08:36:50;94250.25;;;10.92;71.10
85386;BME280;75792;42.686;23.298;2024-02-26T08:39:16;94239.28;;;10.81;70.54
85386;BME280;75792;42.686;23.298;2024-02-26T08:41:43;94244.69;;;10.93;70.60
85386;BME280;75792;42.686;23.298;2024-02-26T08:44:09;94252.22;;;11.21;70.26
85386;BME280;75792;42.686;23.298;2024-02-26T08:46:34;94256.22;;;11.36;68.96
85386;BME280;75792;42.686;23.298;2024-02-26T08:48:59;94247.91;;;11.25;69.03
85386;BME280;75792;42.686;23.298;2024-02-26T08:51:25;94240.75;;;11.34;68.82
85386;BME280;75792;42.686;23.298;2024-02-26T08:53:50;94243.94;;;11.57;68.09
85386;BME280;75792;42.686;23.298;2024-02-26T08:56:16;94253.19;;;11.08;69.71
85386;BME280;75792;42.686;23.298;2024-02-26T08:58:45;94244.09;;;11.52;68.90
85386;BME280;75792;42.686;23.298;2024-02-26T09:01:13;94242.19;;;11.14;69.42
85386;BME280;75792;42.686;23.298;2024-02-26T09:03:39;94244.09;;;11.52;68.54
85386;BME280;75792;42.686;23.298;2024-02-26T09:06:05;94245.53;;;11.79;66.71
85386;BME280;75792;42.686;23.298;2024-02-26T09:08:32;94232.53;;;11.74;65.34
85386;BME280;75792;42.686;23.298;2024-02-26T09:10:57;94221.84;;;12.09;64.24
85386;BME280;75792;42.686;23.298;2024-02-26T09:13:23;94227.53;;;12.41;62.52
85386;BME280;75792;42.686;23.298;2024-02-26T09:15:48;94236.88;;;12.59;62.15
85386;BME280;75792;42.686;23.298;2024-02-26T09:18:14;94235.75;;;12.18;63.10
85386;BME280;75792;42.686;23.298;2024-02-26T09:20:40;94230.94;;;12.20;64.14
85386;BME280;75792;42.686;23.298;2024-02-26T09:23:06;94223.25;;;12.57;62.52
85386;BME280;75792;42.686;23.298;2024-02-26T09:25:31;94236.00;;;12.88;62.81
85386;BME280;75792;42.686;23.298;2024-02-26T09:27:59;94229.97;;;12.88;62.09
85386;BME280;75792;42.686;23.298;2024-02-26T09:30:24;94225.66;;;13.16;61.97
85386;BME280;75792;42.686;23.298;2024-02-26T09:32:50;94231.69;;;13.38;61.35
85386;BME280;75792;42.686;23.298;2024-02-26T09:35:15;94230.94;;;13.16;61.05
85386;BME280;75792;42.686;23.298;2024-02-26T09:37:41;94227.28;;;13.30;60.85
85386;BME280;75792;42.686;23.298;2024-02-26T09:40:07;94232.28;;;13.56;59.19
85386;BME280;75792;42.686;23.298;2024-02-26T09:42:34;94226.09;;;13.64;59.49
85386;BME280;75792;42.686;23.298;2024-02-26T09:45:01;94220.50;;;13.66;59.40
85386;BME280;75792;42.686;23.298;2024-02-26T09:47:33;94219.41;;;13.79;58.33
85386;BME280;75792;42.686;23.298;2024-02-26T09:50:00;94211.25;;;13.84;56.61
85386;BME280;75792;42.686;23.298;2024-02-26T09:52:28;94218.06;;;13.73;57.50
85386;BME280;75792;42.686;23.298;2024-02-26T09:54:56;94214.53;;;13.81;55.38
85386;BME280;75792;42.686;23.298;2024-02-26T09:57:21;94212.69;;;13.81;55.45
85386;BME280;75792;42.686;23.298;2024-02-26T09:59:51;94209.28;;;13.69;56.71
85386;BME280;75792;42.686;23.298;2024-02-26T10:02:19;94207.06;;;13.71;55.90
85386;BME280;75792;42.686;23.298;2024-02-26T10:04:46;94199.69;;;13.76;55.27
85386;BME280;75792;42.686;23.298;2024-02-26T10:07:13;94203.97;;;13.93;56.21
85386;BME280;75792;42.686;23.298;2024-02-26T10:09:38;94205.06;;;14.04;55.48
85386;BME280;75792;42.686;23.298;2024-02-26T10:12:04;94204.84;;;14.22;54.41
85386;BME280;75792;42.686;23.298;2024-02-26T10:14:30;94192.59;;;14.29;54.01
85386;BME280;75792;42.686;23.298;2024-02-26T10:16:56;94193.84;;;13.83;55.10
85386;BME280;75792;42.686;23.298;2024-02-26T10:19:28;94183.25;;;13.83;53.98
85386;BME280;75792;42.686;23.298;2024-02-26T10:21:57;94184.78;;;14.08;54.31
85386;BME280;75792;42.686;23.298;2024-02-26T10:24:24;94180.84;;;13.90;54.39
85386;BME280;75792;42.686;23.298;2024-02-26T10:26:51;94176.19;;;13.99;54.27
85386;BME280;75792;42.686;23.298;2024-02-26T10:29:20;94166.41;;;13.75;54.96
85386;BME280;75792;42.686;23.298;2024-02-26T10:31:46;94173.31;;;14.04;55.32
85386;BME280;75792;42.686;23.298;2024-02-26T10:34:11;94164.97;;;13.78;55.12
85386;BME280;75792;42.686;23.298;2024-02-26T10:36:37;94160.56;;;13.82;53.39
85386;BME280;75792;42.686;23.298;2024-02-26T10:39:06;94161.56;;;13.90;54.26
85386;BME280;75792;42.686;23.298;2024-02-26T10:41:32;94160.09;;;14.17;52.38
85386;BME280;75792;42.686;23.298;2024-02-26T10:43:58;94166.84;;;13.90;52.75
85386;BME280;75792;42.686;23.298;2024-02-26T10:46:25;94165.63;;;13.75;53.48
85386;BME280;75792;42.686;23.298;2024-02-26T10:48:51;94154.84;;;13.92;52.36
85386;BME280;75792;42.686;23.298;2024-02-26T10:51:17;94156.41;;;13.69;53.99
85386;BME280;75792;42.686;23.298;2024-02-26T10:53:46;94150.41;;;13.96;53.02
85386;BME280;75792;42.686;23.298;2024-02-26T10:56:15;94155.00;;;14.24;52.69
85386;BME280;75792;42.686;23.298;2024-02-26T10:58:41;94153.72;;;14.05;52.59
85386;BME280;75792;42.686;23.298;2024-02-26T11:01:08;94153.13;;;14.24;53.35
85386;BME280;75792;42.686;23.298;2024-02-26T11:03:35;94146.88;;;14.04;53.28
85386;BME280;75792;42.686;23.298;2024-02-26T11:06:03;94144.66;;;14.06;53.43
85386;BME280;75792;42.686;23.298;2024-02-26T11:08:30;94147.69;;;14.33;51.86
85386;BME280;75792;42.686;23.298;2024-02-26T11:10:56;94140.78;;;14.16;52.26
85386;BME280;75792;42.686;23.298;2024-02-26T11:13:21;94149.28;;;14.10;52.16
85386;BME280;75792;42.686;23.298;2024-02-26T11:15:48;94138.16;;;14.16;52.48
85386;BME280;75792;42.686;23.298;2024-02-26T11:18:16;94144.81;;;14.38;52.14
85386;BME280;75792;42.686;23.298;2024-02-26T11:20:44;94146.53;;;14.46;51.48
85386;BME280;75792;42.686;23.298;2024-02-26T11:23:11;94152.22;;;14.33;52.28
85386;BME280;75792;42.686;23.298;2024-02-26T11:25:36;94150.97;;;14.42;51.13
85386;BME280;75792;42.686;23.298;2024-02-26T11:28:05;94144.22;;;14.04;52.89
85386;BME280;75792;42.686;23.298;2024-02-26T11:30:34;94143.91;;;14.06;53.05
85386;BME280;75792;42.686;23.298;2024-02-26T11:33:06;94141.84;;;13.87;52.63
85386;BME280;75792;42.686;23.298;2024-02-26T11:35:34;94144.88;;;14.14;51.90
85386;BME280;75792;42.686;23.298;2024-02-26T11:37:59;94132.44;;;14.42;51.45
85386;BME280;75792;42.686;23.298;2024-02-26T11:40:26;94129.25;;;13.96;52.51
85386;BME280;75792;42.686;23.298;2024-02-26T11:42:51;94138.44;;;14.27;51.82
85386;BME280;75792;42.686;23.298;2024-02-26T11:48:29;94119.28;;;14.18;52.87
85386;BME280;75792;42.686;23.298;2024-02-26T11:50:55;94122.75;;;14.34;51.34
85386;BME280;75792;42.686;23.298;2024-02-26T11:53:32;94118.09;;;14.56;50.72
85386;BME280;75792;42.686;23.298;2024-02-26T12:01:48;94126.63;;;14.93;49.47
85386;BME280;75792;42.686;23.298;2024-02-26T12:04:16;94116.72;;;15.06;49.35
85386;BME280;75792;42.686;23.298;2024-02-26T12:06:56;94128.88;;;15.23;48.17
85386;BME280;75792;42.686;23.298;2024-02-26T12:09:41;94127.91;;;15.47;47.91
85386;BME280;75792;42.686;23.298;2024-02-26T12:12:08;94133.28;;;15.66;47.29
85386;BME280;75792;42.686;23.298;2024-02-26T12:14:41;94126.44;;;15.65;47.70
85386;BME280;75792;42.686;23.298;2024-02-26T12:17:20;94126.91;;;15.35;47.59
85386;BME280;75792;42.686;23.298;2024-02-26T12:19:46;94127.13;;;15.62;47.41
85386;BME280;75792;42.686;23.298;2024-02-26T12:22:15;94130.13;;;15.76;46.26
85386;BME280;75792;42.686;23.298;2024-02-26T12:24:41;94132.09;;;15.64;46.75
85386;BME280;75792;42.686;23.298;2024-02-26T12:27:06;94137.16;;;15.21;47.25
85386;BME280;75792;42.686;23.298;2024-02-26T12:29:31;94134.94;;;15.55;46.45
85386;BME280;75792;42.686;23.298;2024-02-26T12:31:57;94134.66;;;15.60;45.92
85386;BME280;75792;42.686;23.298;2024-02-26T12:34:22;94137.06;;;15.81;45.51
85386;BME280;75792;42.686;23.298;2024-02-26T12:36:48;94134.75;;;15.79;46.41
85386;BME280;75792;42.686;23.298;2024-02-26T12:39:14;94134.06;;;16.18;44.70
85386;BME280;75792;42.686;23.298;2024-02-26T12:41:40;94136.09;;;16.63;44.14
85386;BME280;75792;42.686;23.298;2024-02-26T12:44:05;94141.69;;;16.97;43.36
85386;BME280;75792;42.686;23.298;2024-02-26T12:46:32;94140.69;;;17.51;41.82
85386;BME280;75792;42.686;23.298;2024-02-26T12:48:58;94135.81;;;17.57;42.36
85386;BME280;75792;42.686;23.298;2024-02-26T12:51:25;94138.50;;;17.80;41.60
85386;BME280;75792;42.686;23.298;2024-02-26T12:53:52;94136.09;;;17.25;42.44
85386;BME280;75792;42.686;23.298;2024-02-26T12:56:19;94127.59;;;17.39;41.59
85386;BME280;75792;42.686;23.298;2024-02-26T12:58:45;94121.28;;;18.00;40.51